Time;durP1;ratioP1;P1;durP2;ratioP2;P2;SDS_P1;SDS_P2;PMS_P1;PMS_P2;Temp;Humidity;BMP_temperature;BMP_pressure;BME280_temperature;BME280_humidity;BME280_pressure;Samples;Min_cycle;Max_cycle;Signal;HPM_P1;HPM_P2
2021/11/24 00:00:25;;;;;;;0.63;0.60;;;20.30;45.80;;;23.93;30.78;102273.72;5094926;28;20469;-48
2021/11/24 00:02:51;;;;;;;0.95;0.80;;;20.30;45.80;;;23.95;30.88;102273.66;5095069;28;20044;-52
2021/11/24 00:05:18;;;;;;;1.77;0.95;;;20.30;45.80;;;23.92;30.79;102274.66;5094994;28;20052;-49
2021/11/24 00:07:45;;;;;;;0.77;0.63;;;20.30;45.80;;;23.94;30.71;102283.50;5095065;28;20047;-48
2021/11/24 00:10:13;;;;;;;0.80;0.73;;;20.30;45.80;;;23.93;30.93;102267.53;5094835;28;20490;-48
2021/11/24 00:12:39;;;;;;;1.13;0.88;;;20.30;45.80;;;23.90;30.84;102265.88;5094886;28;20509;-49
2021/11/24 00:15:10;;;;;;;0.88;0.55;;;20.30;45.80;;;23.89;30.93;102265.94;5076732;28;20048;-47
2021/11/24 00:17:37;;;;;;;1.73;0.80;;;20.30;45.80;;;23.98;30.79;102278.84;5095137;28;20403;-45
2021/11/24 00:20:05;;;;;;;0.85;0.60;;;20.30;45.80;;;23.94;30.92;102269.25;5094743;28;20450;-47
2021/11/24 00:22:31;;;;;;;1.00;0.90;;;20.30;45.80;;;23.94;30.91;102272.81;5094509;28;20055;-48
2021/11/24 00:24:57;;;;;;;0.95;0.60;;;20.30;45.80;;;23.93;30.80;102275.56;5094941;28;20121;-49
2021/11/24 00:27:23;;;;;;;1.25;0.80;;;20.30;45.80;;;23.92;30.93;102265.78;5094584;28;20169;-49
2021/11/24 00:29:50;;;;;;;1.42;0.90;;;20.30;45.80;;;23.91;30.73;102264.94;5094495;28;20147;-46
2021/11/24 00:32:16;;;;;;;0.60;0.57;;;20.30;45.80;;;23.91;31.02;102272.09;5094592;28;20048;-47
2021/11/24 00:34:42;;;;;;;0.60;0.60;;;20.30;45.80;;;23.90;30.81;102257.00;5094439;28;20052;-48
2021/11/24 00:37:08;;;;;;;1.08;0.82;;;20.30;45.90;;;23.92;30.70;102263.13;5094768;28;20040;-45
2021/11/24 00:39:34;;;;;;;0.63;0.63;;;20.20;45.80;;;23.88;30.84;102256.22;5094787;28;20051;-46
2021/11/24 00:42:00;;;;;;;0.60;0.60;;;20.30;46.40;;;23.90;31.02;102268.53;5094246;28;20052;-49
2021/11/24 00:44:25;;;;;;;0.95;0.60;;;20.20;45.80;;;23.89;30.75;102260.63;5094299;28;20435;-49
2021/11/24 00:46:51;;;;;;;0.88;0.80;;;20.30;45.80;;;23.89;30.85;102257.94;5094524;28;20072;-45
2021/11/24 00:49:17;;;;;;;1.70;0.77;;;20.30;45.90;;;23.88;30.72;102259.75;5094123;28;20068;-44
2021/11/24 00:51:43;;;;;;;0.68;0.52;;;20.30;45.90;;;23.88;30.80;102257.09;5094419;28;20495;-45
2021/11/24 00:54:09;;;;;;;0.70;0.70;;;20.20;45.80;;;23.91;31.05;102266.75;5094225;28;20063;-45
2021/11/24 00:56:36;;;;;;;1.27;0.77;;;20.20;45.80;;;23.86;30.79;102254.50;5094242;28;20491;-45
2021/11/24 00:59:04;;;;;;;0.88;0.60;;;20.20;45.80;;;23.87;31.07;102263.34;5094154;28;20496;-44
2021/11/24 01:01:30;;;;;;;1.58;0.73;;;20.20;45.80;;;23.87;30.97;102247.34;5094415;28;20067;-45
2021/11/24 01:03:56;;;;;;;1.23;0.80;;;20.30;45.90;;;23.86;30.91;102249.16;5094022;28;20398;-46
2021/11/24 01:06:22;;;;;;;1.00;0.80;;;20.20;45.80;;;23.88;30.76;102253.56;5093999;28;20043;-45
2021/11/24 01:08:49;;;;;;;1.65;0.63;;;20.20;45.80;;;23.88;30.96;102253.56;5094053;28;20052;-47
2021/11/24 01:11:15;;;;;;;1.05;0.80;;;20.20;45.90;;;23.88;30.91;102254.41;5093833;28;20093;-46
2021/11/24 01:13:42;;;;;;;0.70;0.70;;;20.20;45.90;;;23.86;30.73;102248.28;5075002;28;20098;-45
2021/11/24 01:16:10;;;;;;;1.10;0.85;;;20.20;45.80;;;23.86;30.86;102245.63;5094441;28;20071;-45
2021/11/24 01:18:37;;;;;;;0.93;0.75;;;20.20;45.90;;;23.86;30.95;102241.13;5094198;28;20126;-44
2021/11/24 01:21:04;;;;;;;1.17;0.77;;;20.20;45.90;;;23.86;31.02;102235.78;5093736;28;20381;-47
2021/11/24 01:23:30;;;;;;;0.88;0.55;;;20.20;45.90;;;23.89;30.92;102236.56;5093709;28;20059;-46
2021/11/24 01:25:56;;;;;;;0.70;0.70;;;20.20;45.90;;;23.86;30.73;102232.28;5093496;28;20487;-45
2021/11/24 01:28:22;;;;;;;0.88;0.80;;;20.20;45.80;;;23.85;30.79;102235.88;5093331;28;20097;-50
2021/11/24 01:30:48;;;;;;;1.17;0.90;;;20.20;45.80;;;23.87;30.92;102236.66;5093845;28;20063;-46
2021/11/24 01:33:14;;;;;;;0.75;0.63;;;20.20;45.80;;;23.87;30.84;102242.00;5093485;28;20388;-47
2021/11/24 01:35:40;;;;;;;0.70;0.70;;;20.20;45.80;;;23.83;30.95;102233.28;5093499;28;20044;-44
2021/11/24 01:38:06;;;;;;;1.05;0.70;;;20.20;45.90;;;23.86;30.84;102238.47;5093637;28;20044;-49
2021/11/24 01:40:32;;;;;;;0.85;0.60;;;20.20;45.90;;;23.86;30.96;102241.13;5093852;28;20089;-45
2021/11/24 01:42:58;;;;;;;1.13;0.60;;;20.20;45.90;;;23.86;30.76;102235.78;5093293;28;20044;-47
2021/11/24 01:45:24;;;;;;;1.17;0.55;;;20.20;45.90;;;23.82;30.80;102226.22;5093459;28;20044;-45
2021/11/24 01:47:51;;;;;;;1.15;0.63;;;20.20;45.90;;;23.85;30.95;102225.19;5093231;28;20048;-47
2021/11/24 01:50:20;;;;;;;0.73;0.60;;;20.20;45.90;;;23.83;30.95;102227.09;5093354;28;20079;-45
2021/11/24 01:52:46;;;;;;;0.75;0.70;;;20.20;45.90;;;23.86;30.79;102230.44;5093337;28;20052;-45
2021/11/24 01:55:15;;;;;;;0.77;0.77;;;20.20;45.90;;;23.85;31.10;102223.38;5093296;28;20047;-49
2021/11/24 01:57:45;;;;;;;0.98;0.70;;;20.20;45.90;;;23.82;30.99;102217.34;5093106;28;20051;-45
2021/11/24 02:00:14;;;;;;;0.90;0.90;;;20.20;45.90;;;23.84;31.01;102224.34;5093148;28;20051;-45
2021/11/24 02:02:40;;;;;;;1.17;0.80;;;20.20;45.90;;;23.85;31.08;102225.19;5093385;28;20047;-46
2021/11/24 02:05:06;;;;;;;0.82;0.68;;;20.20;45.90;;;23.82;31.06;102218.22;5093137;28;20048;-50
2021/11/24 02:07:32;;;;;;;0.82;0.82;;;20.20;45.90;;;23.83;30.87;102217.25;5093442;28;20468;-46
2021/11/24 02:09:58;;;;;;;1.35;0.70;;;20.20;45.90;;;23.84;31.11;102216.31;5092992;28;20048;-45
2021/11/24 02:12:24;;;;;;;0.85;0.60;;;20.20;45.90;;;23.84;31.05;102213.66;5092980;28;20043;-45
2021/11/24 02:14:50;;;;;;;0.82;0.60;;;20.20;45.90;;;23.79;30.95;102199.66;5075141;28;20040;-48
2021/11/24 02:17:17;;;;;;;2.28;1.10;;;20.20;45.90;;;23.80;31.08;102196.00;5092611;28;20043;-47
2021/11/24 02:19:44;;;;;;;1.40;0.90;;;20.20;45.90;;;23.85;30.99;102206.50;5092739;28;20097;-44
2021/11/24 02:22:11;;;;;;;0.75;0.75;;;20.20;45.90;;;23.84;30.97;102197.63;5092806;28;20048;-46
2021/11/24 02:24:38;;;;;;;0.60;0.60;;;20.20;45.90;;;23.80;30.96;102182.66;5092903;28;20048;-44
2021/11/24 02:27:08;;;;;;;0.70;0.63;;;20.20;45.90;;;23.79;30.91;102180.94;5092823;28;20133;-48
2021/11/24 02:29:34;;;;;;;1.00;0.90;;;20.20;45.90;;;23.82;30.84;102185.28;5089652;28;20467;-45
2021/11/24 02:32:03;;;;;;;0.77;0.77;;;20.20;45.90;;;23.82;31.13;102190.63;5092764;28;20044;-45
2021/11/24 02:34:30;;;;;;;1.27;0.60;;;20.20;45.90;;;23.82;30.86;102186.16;5092811;28;20460;-45
2021/11/24 02:36:57;;;;;;;0.70;0.70;;;20.10;45.90;;;23.82;30.98;102191.50;5092372;28;20557;-45
2021/11/24 02:39:24;;;;;;;0.98;0.60;;;20.20;45.90;;;23.82;31.06;102186.16;5092725;28;20040;-46
2021/11/24 02:41:50;;;;;;;0.77;0.70;;;20.20;45.90;;;23.83;31.04;102173.66;5092677;28;20491;-45
2021/11/24 02:44:20;;;;;;;1.85;1.00;;;20.20;45.90;;;23.82;30.97;102174.59;5092692;28;20392;-47
2021/11/24 02:46:46;;;;;;;0.80;0.80;;;20.20;45.90;;;23.79;30.86;102162.25;5092404;28;20492;-45
2021/11/24 02:49:14;;;;;;;0.50;0.50;;;20.20;45.90;;;23.80;30.98;102160.44;5092919;28;20450;-46
2021/11/24 02:51:41;;;;;;;0.70;0.70;;;20.20;45.90;;;23.82;30.80;102162.13;5092464;28;20052;-46
2021/11/24 02:54:07;;;;;;;1.45;0.80;;;20.10;45.80;;;23.82;30.91;102166.59;5092454;28;20076;-45
2021/11/24 02:56:33;;;;;;;0.73;0.60;;;20.20;45.90;;;23.82;30.84;102171.94;5092505;28;20075;-45
2021/11/24 02:58:59;;;;;;;1.02;0.70;;;20.20;45.90;;;23.79;30.80;102159.59;5092449;28;20105;-46
2021/11/24 03:01:24;;;;;;;0.70;0.70;;;20.20;45.90;;;23.82;30.95;102169.25;5092387;28;20044;-46
2021/11/24 03:03:50;;;;;;;0.60;0.60;;;20.10;45.90;;;23.80;30.91;102158.63;5092296;28;20135;-47
2021/11/24 03:06:17;;;;;;;1.02;0.80;;;20.10;45.90;;;23.80;31.08;102155.94;5092302;28;20541;-44
2021/11/24 03:08:44;;;;;;;0.73;0.73;;;20.10;45.80;;;23.82;30.90;102162.13;5092290;28;20048;-46
2021/11/24 03:11:10;;;;;;;1.10;0.68;;;20.20;45.90;;;23.82;30.90;102156.78;5092582;28;20066;-45
2021/11/24 03:13:37;;;;;;;0.85;0.75;;;20.10;45.80;;;23.81;31.08;102156.84;5092294;28;20044;-45
2021/11/24 03:16:04;;;;;;;0.75;0.75;;;20.20;45.90;;;23.80;30.79;102147.94;5092222;28;20056;-45
2021/11/24 03:18:30;;;;;;;0.88;0.85;;;20.10;45.80;;;23.80;31.07;102141.75;5092038;28;20059;-47
2021/11/24 03:20:56;;;;;;;0.73;0.60;;;20.20;45.90;;;23.82;30.88;102142.53;5092275;28;20109;-45
2021/11/24 03:23:22;;;;;;;0.50;0.50;;;20.20;45.90;;;23.82;30.91;102134.53;5072339;28;20135;-45
2021/11/24 03:25:48;;;;;;;0.88;0.75;;;20.20;45.90;;;23.81;31.07;102132.78;5091894;28;20059;-44
2021/11/24 03:28:14;;;;;;;0.75;0.70;;;20.20;45.80;;;23.86;30.95;102130.78;5092076;28;20051;-46
2021/11/24 03:30:40;;;;;;;0.73;0.73;;;20.20;45.70;;;23.86;30.91;102131.63;5091945;28;20052;-45
2021/11/24 03:33:06;;;;;;;0.70;0.70;;;20.20;45.70;;;23.86;31.13;102120.94;5092033;28;20056;-45
2021/11/24 03:35:34;;;;;;;0.90;0.60;;;20.30;45.70;;;23.84;31.21;102117.50;5091974;28;20055;-45
2021/11/24 03:38:01;;;;;;;0.80;0.80;;;20.30;45.70;;;23.91;31.06;102126.03;5095399;28;20130;-48
2021/11/24 03:40:32;;;;;;;0.90;0.77;;;20.30;45.70;;;23.92;31.01;102127.75;5095491;28;20449;-45
2021/11/24 03:42:59;;;;;;;0.68;0.68;;;20.30;45.60;;;23.94;30.89;102123.19;5095596;28;20054;-49
2021/11/24 03:45:31;;;;;;;0.65;0.60;;;20.40;45.60;;;23.95;30.77;102124.06;5095596;28;20040;-47
2021/11/24 03:47:57;;;;;;;1.00;0.80;;;20.40;45.50;;;23.95;30.97;102118.72;5095401;28;20040;-46
2021/11/24 03:50:24;;;;;;;2.08;0.90;;;20.40;45.50;;;23.95;30.80;102113.38;5095133;28;20052;-48
2021/11/24 03:52:50;;;;;;;0.90;0.77;;;20.40;45.40;;;23.97;30.98;102123.03;5095171;28;20131;-47
2021/11/24 03:55:17;;;;;;;0.77;0.70;;;20.50;45.40;;;23.99;30.99;102123.81;5095125;28;20096;-47
2021/11/24 03:57:44;;;;;;;0.85;0.70;;;20.50;45.30;;;24.03;30.88;102125.34;5095022;28;20055;-45
2021/11/24 04:00:16;;;;;;;0.80;0.68;;;20.50;45.30;;;24.00;30.64;102111.31;5095360;28;20040;-45
2021/11/24 04:02:42;;;;;;;0.60;0.60;;;20.50;45.20;;;24.08;30.71;102118.91;5095044;28;20544;-49
2021/11/24 04:05:10;;;;;;;1.13;0.73;;;20.60;45.30;;;24.09;30.90;102113.47;5095043;28;20131;-46
2021/11/24 04:07:36;;;;;;;0.50;0.50;;;20.60;45.20;;;24.10;30.63;102115.19;5094999;28;20044;-44
2021/11/24 04:10:04;;;;;;;0.70;0.70;;;20.60;45.20;;;24.12;30.74;102113.28;5094775;28;20052;-47
2021/11/24 04:12:30;;;;;;;1.38;0.80;;;20.60;45.10;;;24.13;30.64;102111.50;5094862;28;20544;-46
2021/11/24 04:14:56;;;;;;;0.75;0.60;;;20.70;45.10;;;24.16;30.83;102112.19;5094803;28;20048;-46
2021/11/24 04:17:22;;;;;;;1.05;0.90;;;20.70;45.10;;;24.18;30.63;102112.09;5094846;28;20515;-47
2021/11/24 04:19:49;;;;;;;1.10;0.80;;;20.70;45.50;;;24.17;30.84;102108.56;5094671;28;20086;-48
2021/11/24 04:22:15;;;;;;;1.05;0.77;;;20.70;45.00;;;24.21;30.84;102115.47;5094607;28;20120;-45
2021/11/24 04:24:41;;;;;;;0.75;0.70;;;20.70;45.00;;;24.21;30.70;102109.25;5094722;28;20044;-48
2021/11/24 04:27:08;;;;;;;0.95;0.70;;;20.70;45.00;;;24.23;30.38;102102.00;5094927;28;20094;-45
2021/11/24 04:29:34;;;;;;;0.68;0.60;;;20.70;45.00;;;24.25;30.54;102116.16;5094652;28;20563;-45
2021/11/24 04:32:00;;;;;;;0.70;0.60;;;20.80;45.00;;;24.27;30.54;102114.25;5094612;28;20105;-48
2021/11/24 04:34:27;;;;;;;1.23;0.70;;;20.80;45.50;;;24.26;30.69;102095.63;5094570;28;20040;-47
2021/11/24 04:36:53;;;;;;;0.75;0.75;;;20.80;44.90;;;24.30;30.68;102100.69;5094867;28;20055;-47
2021/11/24 04:39:19;;;;;;;0.57;0.57;;;20.80;44.90;;;24.30;30.67;102106.06;5076197;28;20096;-45
2021/11/24 04:41:45;;;;;;;0.70;0.63;;;20.80;44.90;;;24.32;30.57;102106.81;5094441;28;20044;-46
2021/11/24 04:44:11;;;;;;;0.80;0.60;;;20.80;44.90;;;24.31;30.54;102099.78;5094326;28;20153;-45
2021/11/24 04:46:37;;;;;;;0.73;0.70;;;20.80;44.90;;;24.34;30.41;102101.38;5094849;28;20176;-45
2021/11/24 04:49:03;;;;;;;0.65;0.65;;;20.80;44.80;;;24.36;30.67;102103.03;5093401;28;20040;-47
2021/11/24 04:51:29;;;;;;;1.23;0.80;;;20.80;44.80;;;24.34;30.56;102091.59;5094327;28;20056;-45
2021/11/24 04:53:55;;;;;;;0.68;0.57;;;20.90;44.80;;;24.35;30.19;102087.94;5094512;28;20377;-45
2021/11/24 04:56:20;;;;;;;0.82;0.60;;;20.80;44.80;;;24.34;30.41;102083.56;5094172;28;20488;-45
2021/11/24 04:58:55;;;;;;;0.73;0.70;;;20.80;44.80;;;24.38;30.59;102089.59;5094099;28;20048;-45
2021/11/24 05:01:22;;;;;;;0.93;0.77;;;20.80;44.90;;;24.37;30.52;102078.03;5094470;28;20047;-44
2021/11/24 05:03:48;;;;;;;0.70;0.70;;;20.90;44.90;;;24.34;30.52;102069.31;5094345;28;20056;-45
2021/11/24 05:06:14;;;;;;;0.70;0.65;;;20.80;44.80;;;24.39;30.46;102081.47;5093921;28;20127;-45
2021/11/24 05:08:42;;;;;;;1.05;0.80;;;20.80;44.80;;;24.39;30.36;102072.56;5094004;28;20044;-45
2021/11/24 05:11:12;;;;;;;1.42;0.63;;;20.80;44.80;;;24.40;30.44;102071.66;5094411;28;20051;-47
2021/11/24 05:13:45;;;;;;;0.93;0.50;;;20.90;44.80;;;24.40;30.44;102063.63;5092703;28;20048;-47
2021/11/24 05:16:11;;;;;;;0.82;0.70;;;20.80;44.80;;;24.42;30.39;102062.59;5093819;28;20365;-46
2021/11/24 05:18:49;;;;;;;0.90;0.70;;;20.90;44.80;;;24.40;30.49;102060.94;5093829;28;20105;-46
2021/11/24 05:21:38;;;;;;;0.80;0.80;;;20.80;44.80;;;24.40;30.43;102074.31;5094315;28;20130;-47
2021/11/24 05:24:04;;;;;;;0.70;0.70;;;20.80;44.80;;;24.39;30.27;102062.78;5093375;28;20059;-46
2021/11/24 05:26:31;;;;;;;0.70;0.70;;;20.80;44.80;;;24.40;30.33;102075.16;5094009;28;20059;-45
2021/11/24 05:28:58;;;;;;;0.93;0.70;;;20.80;44.80;;;24.41;30.43;102076.91;5093720;28;20052;-46
2021/11/24 05:31:25;;;;;;;0.73;0.60;;;20.80;44.90;;;24.40;30.45;102072.50;5090217;28;20124;-46
2021/11/24 05:33:51;;;;;;;0.73;0.70;;;20.80;44.80;;;24.37;30.34;102063.78;5093614;28;20052;-47
2021/11/24 05:36:18;;;;;;;0.80;0.80;;;20.80;44.90;;;24.41;30.42;102070.72;5093628;28;20101;-46
2021/11/24 05:38:46;;;;;;;1.85;0.70;;;20.80;44.90;;;24.40;30.42;102072.50;5093571;28;20070;-52
2021/11/24 05:41:13;;;;;;;0.75;0.70;;;20.80;44.90;;;24.38;30.39;102076.22;5093458;28;20040;-45
2021/11/24 05:43:40;;;;;;;0.55;0.55;;;20.80;44.90;;;24.38;30.31;102073.56;5094033;28;20048;-48
2021/11/24 05:46:50;;;;;;;0.60;0.60;;;20.80;44.90;;;24.38;30.37;102068.22;5093612;28;20047;-46
2021/11/24 05:48:56;;;;;;;0.70;0.70;;;20.80;44.90;;;24.39;30.34;102070.78;5082108;28;20048;-45
2021/11/24 05:51:22;;;;;;;1.88;0.80;;;20.80;44.90;;;24.40;30.21;102080.50;5093805;28;20047;-52
2021/11/24 05:53:48;;;;;;;0.95;0.80;;;20.80;44.90;;;24.40;30.49;102074.31;5093523;28;20056;-47
2021/11/24 05:56:14;;;;;;;1.15;0.70;;;20.80;44.90;;;24.36;30.32;102065.63;5093318;28;20051;-48
2021/11/24 05:58:41;;;;;;;0.50;0.50;;;20.80;44.90;;;24.38;30.51;102076.22;5092703;28;20051;-47
2021/11/24 06:01:07;;;;;;;1.10;0.70;;;20.80;44.90;;;24.38;30.22;102073.56;5093211;28;20048;-46
2021/11/24 06:03:33;;;;;;;0.70;0.70;;;20.80;44.90;;;24.38;30.34;102073.56;5093251;28;20186;-49
2021/11/24 06:05:59;;;;;;;0.70;0.60;;;20.80;44.90;;;24.39;30.33;102068.13;5093127;28;20055;-45
2021/11/24 06:08:25;;;;;;;0.70;0.70;;;20.80;44.90;;;24.38;30.32;102073.56;5093182;28;20052;-46
2021/11/24 06:10:51;;;;;;;0.85;0.70;;;20.80;45.00;;;24.37;30.41;102062.00;5093194;28;20489;-46
2021/11/24 06:13:17;;;;;;;1.00;0.80;;;20.80;44.90;;;24.39;30.43;102061.88;5093402;28;20468;-49
2021/11/24 06:15:43;;;;;;;0.80;0.75;;;20.80;44.90;;;24.41;30.49;102058.19;5092804;28;20059;-45
2021/11/24 06:18:09;;;;;;;0.80;0.60;;;20.80;44.90;;;24.38;30.39;102061.03;5092569;28;20101;-46
2021/11/24 06:20:38;;;;;;;0.95;0.60;;;20.80;44.90;;;24.38;30.35;102057.50;5092573;28;20058;-46
2021/11/24 06:23:04;;;;;;;0.60;0.60;;;20.80;44.90;;;24.39;30.32;102061.88;5092700;28;20145;-45
2021/11/24 06:25:30;;;;;;;0.95;0.70;;;20.80;44.90;;;24.37;30.42;102063.78;5092804;28;20084;-45
2021/11/24 06:27:55;;;;;;;0.90;0.77;;;20.80;44.90;;;24.43;30.51;102071.47;5092845;28;20131;-46
2021/11/24 06:30:21;;;;;;;0.95;0.70;;;20.80;44.90;;;24.40;30.31;102067.16;5092703;28;20077;-49
2021/11/24 06:32:47;;;;;;;1.20;0.70;;;20.80;45.00;;;24.41;30.40;102062.69;5092723;28;20051;-47
2021/11/24 06:35:14;;;;;;;1.05;0.88;;;20.80;44.90;;;24.41;30.26;102066.22;5092756;28;20102;-47
2021/11/24 06:37:40;;;;;;;0.93;0.80;;;20.80;44.90;;;24.41;30.24;102066.22;5092564;28;20131;-48
2021/11/24 06:40:08;;;;;;;0.98;0.80;;;20.80;44.90;;;24.37;30.56;102055.78;5092521;28;20128;-45
2021/11/24 06:42:35;;;;;;;0.70;0.68;;;20.80;44.90;;;24.41;30.26;102065.34;5092571;28;20127;-46
2021/11/24 06:45:01;;;;;;;0.55;0.55;;;20.80;44.90;;;24.40;30.41;102061.81;5092634;28;20090;-45
2021/11/24 06:47:26;;;;;;;0.70;0.70;;;20.80;44.90;;;24.42;30.49;102061.72;5092721;28;20144;-45
2021/11/24 06:49:52;;;;;;;0.88;0.73;;;20.80;45.00;;;24.39;30.30;102053.88;5092556;28;20093;-47
2021/11/24 06:52:18;;;;;;;0.80;0.68;;;20.80;45.00;;;24.41;30.49;102057.34;5092460;28;20411;-46
2021/11/24 06:54:44;;;;;;;0.60;0.60;;;20.80;44.90;;;24.40;30.46;102051.09;5092770;28;20088;-45
2021/11/24 06:57:10;;;;;;;0.80;0.60;;;20.80;44.90;;;24.43;30.19;102055.44;5092287;28;20400;-44
2021/11/24 06:59:35;;;;;;;0.60;0.52;;;20.80;44.90;;;24.41;30.40;102046.66;5092318;28;20503;-47
2021/11/24 07:02:02;;;;;;;1.35;0.70;;;20.80;44.90;;;24.39;30.40;102054.75;5074337;28;20071;-46
2021/11/24 07:04:27;;;;;;;0.80;0.75;;;20.80;44.90;;;24.41;30.24;102047.50;5092291;28;20087;-46
2021/11/24 07:06:53;;;;;;;0.73;0.70;;;20.80;44.90;;;24.44;30.26;102050.94;5092397;28;20468;-45
2021/11/24 07:09:19;;;;;;;0.70;0.60;;;20.80;44.90;;;24.40;30.41;102051.09;5092526;28;20518;-46
2021/11/24 07:11:45;;;;;;;0.60;0.60;;;20.80;44.90;;;24.42;30.33;102051.03;5093895;28;20127;-48
2021/11/24 07:14:11;;;;;;;1.02;0.80;;;20.80;44.80;;;24.43;30.20;102052.75;5096177;28;20075;-48
2021/11/24 07:16:37;;;;;;;0.93;0.65;;;20.80;44.80;;;24.41;30.28;102042.16;5077099;28;20086;-47
2021/11/24 07:19:04;;;;;;;0.98;0.88;;;20.80;44.80;;;24.44;30.19;102050.94;5095324;28;20130;-49
2021/11/24 07:21:30;;;;;;;0.80;0.63;;;20.80;44.80;;;24.44;30.38;102054.50;5095595;28;20605;-46
2021/11/24 07:23:56;;;;;;;0.70;0.60;;;20.90;44.90;;;24.45;30.20;102055.34;5095620;28;20053;-49
2021/11/24 07:26:22;;;;;;;0.70;0.70;;;20.80;44.80;;;24.45;30.37;102052.66;5095872;28;20044;-45
2021/11/24 07:28:48;;;;;;;0.70;0.70;;;20.80;44.80;;;24.44;30.31;102056.28;5095323;28;20059;-49
2021/11/24 07:31:14;;;;;;;1.13;0.77;;;20.80;44.80;;;24.47;30.45;102048.09;5095305;28;20126;-51
2021/11/24 07:33:41;;;;;;;0.80;0.80;;;20.90;44.90;;;24.45;30.42;102052.66;5095362;28;20414;-48
2021/11/24 07:36:07;;;;;;;0.65;0.63;;;20.80;44.80;;;24.46;30.32;102054.38;5095433;28;20052;-45
2021/11/24 07:38:34;;;;;;;0.85;0.75;;;20.80;44.80;;;24.44;30.40;102049.16;5095323;28;20127;-47
2021/11/24 07:41:00;;;;;;;0.98;0.88;;;20.90;44.80;;;24.44;30.36;102041.13;5095675;28;20147;-45
2021/11/24 07:43:26;;;;;;;0.50;0.50;;;20.90;44.90;;;24.48;30.25;102049.81;5095040;28;20531;-47
2021/11/24 07:45:52;;;;;;;0.80;0.80;;;20.90;44.80;;;24.47;30.25;102048.94;5094841;28;20147;-46
2021/11/24 07:48:18;;;;;;;0.70;0.70;;;20.90;44.80;;;24.47;30.22;102040.06;5095027;28;20055;-46
2021/11/24 07:50:44;;;;;;;1.20;0.70;;;20.90;44.80;;;24.47;30.35;102040.06;5094953;28;20040;-48
2021/11/24 07:53:10;;;;;;;1.02;0.73;;;20.90;44.80;;;24.47;30.32;102040.91;5095107;28;20419;-45
2021/11/24 07:55:36;;;;;;;0.50;0.50;;;20.90;44.80;;;24.49;30.26;102048.84;5095305;28;20040;-48
2021/11/24 07:58:02;;;;;;;0.85;0.85;;;20.90;44.70;;;24.49;30.20;102052.41;5095042;28;20118;-45
2021/11/24 08:00:28;;;;;;;0.63;0.63;;;20.90;44.80;;;24.49;30.42;102046.19;5094990;28;20044;-47
2021/11/24 08:02:54;;;;;;;0.60;0.60;;;20.90;44.80;;;24.51;30.22;102046.97;5094812;28;20052;-46
2021/11/24 08:05:19;;;;;;;0.73;0.73;;;20.90;44.70;;;24.50;30.37;102048.75;5095125;28;20395;-47
2021/11/24 08:07:45;;;;;;;1.02;0.70;;;20.90;44.70;;;24.50;30.21;102048.75;5094824;28;20059;-47
2021/11/24 08:10:11;;;;;;;1.95;0.60;;;20.90;44.70;;;24.51;30.46;102050.50;5095057;28;20048;-48
2021/11/24 08:12:39;;;;;;;0.85;0.60;;;20.90;44.70;;;24.50;30.36;102046.09;5094806;28;20060;-47
2021/11/24 08:15:06;;;;;;;0.60;0.60;;;20.90;44.70;;;24.46;30.16;102033.00;5094700;28;20068;-48
2021/11/24 08:17:33;;;;;;;0.60;0.60;;;20.90;44.70;;;24.49;30.10;102035.47;5094973;28;20404;-48
2021/11/24 08:19:59;;;;;;;0.60;0.60;;;20.90;44.70;;;24.50;30.12;102032.72;5076579;28;20495;-45
2021/11/24 08:22:26;;;;;;;0.70;0.70;;;20.90;44.70;;;24.54;30.18;102036.06;5094353;28;20093;-46
2021/11/24 08:24:52;;;;;;;0.63;0.60;;;20.90;44.70;;;24.54;30.16;102044.09;5094639;28;20052;-48
2021/11/24 08:27:18;;;;;;;0.75;0.75;;;20.90;44.70;;;24.53;30.29;102040.56;5094344;28;20086;-47
2021/11/24 08:29:44;;;;;;;0.75;0.63;;;20.90;44.70;;;24.54;30.18;102033.41;5094532;28;20522;-48
2021/11/24 08:32:11;;;;;;;0.70;0.70;;;20.90;44.70;;;24.57;30.13;102038.59;5094331;28;20185;-47
2021/11/24 08:34:37;;;;;;;1.52;0.70;;;20.90;44.70;;;24.57;30.06;102039.50;5094608;28;20512;-48
2021/11/24 08:37:04;;;;;;;0.60;0.57;;;20.90;45.30;;;24.55;30.11;102027.16;5094362;28;20060;-48
2021/11/24 08:39:30;;;;;;;0.75;0.70;;;20.90;44.70;;;24.55;30.20;102029.81;5094206;28;20048;-47
2021/11/24 08:41:56;;;;;;;0.70;0.50;;;20.90;44.70;;;24.57;30.26;102030.59;5094573;28;20073;-50
2021/11/24 08:44:22;;;;;;;0.88;0.80;;;20.90;44.70;;;24.58;30.29;102032.31;5094140;28;20438;-47
2021/11/24 08:46:48;;;;;;;0.80;0.68;;;20.90;44.70;;;24.59;30.13;102029.56;5094406;28;20049;-50
2021/11/24 08:49:14;;;;;;;1.10;0.80;;;20.90;44.70;;;24.57;30.10;102034.16;5093867;28;20048;-47
2021/11/24 08:51:40;;;;;;;0.63;0.63;;;20.90;44.60;;;24.58;30.21;102024.28;5094117;28;20480;-45
2021/11/24 08:54:10;;;;;;;0.85;0.70;;;20.90;44.60;;;24.55;30.23;102024.47;5093989;28;20063;-48
2021/11/24 08:56:37;;;;;;;0.52;0.52;;;20.90;44.70;;;24.55;30.18;102021.81;5075683;28;20076;-49
2021/11/24 08:59:07;;;;;;;0.75;0.75;;;20.90;44.60;;;24.58;30.21;102024.28;5093658;28;20052;-47
2021/11/24 09:01:34;;;;;;;0.70;0.70;;;20.90;44.60;;;24.57;30.22;102020.78;5093829;28;20497;-45
2021/11/24 09:04:02;;;;;;;0.70;0.65;;;20.90;44.60;;;24.59;30.24;102031.34;5093516;28;20487;-46
2021/11/24 09:06:28;;;;;;;0.80;0.80;;;20.90;44.70;;;24.56;30.02;102020.84;5093771;28;20055;-48
2021/11/24 09:08:54;;;;;;;0.80;0.70;;;21.00;44.70;;;24.58;30.25;102026.97;5093637;28;20046;-45
2021/11/24 09:11:21;;;;;;;0.70;0.68;;;20.90;44.60;;;24.60;30.03;102028.59;5093766;28;20093;-47
2021/11/24 09:13:47;;;;;;;0.80;0.80;;;21.00;44.70;;;24.58;30.20;102024.28;5093766;28;20052;-45
2021/11/24 09:16:14;;;;;;;1.67;0.70;;;21.00;44.60;;;24.62;30.04;102035.66;5093720;28;20050;-47
2021/11/24 09:18:43;;;;;;;0.75;0.70;;;21.00;44.70;;;24.60;30.36;102025.06;5093517;28;20094;-46
2021/11/24 09:21:10;;;;;;;0.68;0.63;;;21.00;44.60;;;24.57;30.17;102015.44;5093670;28;20048;-47
2021/11/24 09:23:39;;;;;;;1.05;0.80;;;21.00;44.60;;;24.62;30.09;102014.28;5093594;28;20044;-46
2021/11/24 09:26:26;;;;;;;0.52;0.52;;;21.00;44.60;;;24.59;30.13;102013.50;5093430;28;20080;-49
2021/11/24 09:28:52;;;;;;;0.82;0.60;;;21.00;44.60;;;24.63;30.01;102024.03;5093089;28;20044;-45
2021/11/24 09:31:18;;;;;;;0.70;0.70;;;21.00;44.50;;;24.64;30.01;102017.72;5093336;28;20048;-47
2021/11/24 09:33:44;;;;;;;0.63;0.60;;;21.00;44.40;;;24.64;30.11;102017.72;5091510;28;20055;-45
2021/11/24 09:36:12;;;;;;;1.23;0.80;;;21.00;44.50;;;24.66;29.97;102018.47;5093238;28;20083;-47
2021/11/24 09:38:40;;;;;;;0.90;0.90;;;21.00;44.40;;;24.67;30.04;102012.19;5093289;28;20400;-45
2021/11/24 09:41:10;;;;;;;0.80;0.70;;;21.10;44.40;;;24.66;30.12;102019.34;5093420;28;20127;-48
2021/11/24 09:43:49;;;;;;;0.80;0.73;;;21.10;44.40;;;24.66;29.95;102008.66;5093652;28;20097;-48
2021/11/24 09:46:18;;;;;;;1.27;0.80;;;21.10;44.30;;;24.69;29.94;102004.91;5093261;28;20040;-48
2021/11/24 09:48:45;;;;;;;0.80;0.80;;;21.10;44.40;;;24.71;30.04;102005.72;5093589;28;20048;-48
2021/11/24 09:51:15;;;;;;;1.25;0.70;;;21.10;44.40;;;24.66;29.94;101989.94;5093230;28;20044;-45
2021/11/24 09:53:44;;;;;;;0.88;0.70;;;21.10;44.40;;;24.72;30.13;101994.03;5074548;28;20141;-50
2021/11/24 09:56:12;;;;;;;0.70;0.70;;;21.10;44.40;;;24.70;30.08;101993.28;5093250;28;20048;-51
2021/11/24 09:58:39;;;;;;;0.60;0.60;;;21.10;44.30;;;24.69;30.03;101987.09;5092927;28;20108;-46
2021/11/24 10:01:07;;;;;;;1.33;0.65;;;21.10;44.30;;;24.69;30.01;101987.09;5092991;28;20048;-47
2021/11/24 10:03:35;;;;;;;1.25;0.80;;;21.10;44.30;;;24.73;29.99;101987.75;5092934;28;20055;-47
2021/11/24 10:06:02;;;;;;;0.70;0.70;;;21.10;44.30;;;24.73;29.95;101980.59;5092735;28;20047;-49
2021/11/24 10:08:32;;;;;;;0.80;0.68;;;21.10;44.30;;;24.71;29.90;101971.81;5092472;28;20443;-46
2021/11/24 10:11:00;;;;;;;3.85;0.90;;;21.20;44.30;;;24.75;29.99;101972.47;5092455;28;20060;-46